首页
METAR-TAF:

METAR-TAF

机场 :

Broken Bow, 內布拉斯加州, 美国

纬度: 41-26N, 经度: 099-39W, 海拔: 776米

当前天气观测

该预报发布于51分钟前的23:53 UTC
静风
温度 4°C
湿度 48%
气压 1013 hPa
能見度: 16.1公里
天空无云

METAR: KBBW 172353Z AUTO 00000KT 10SM CLR 04/M06 A2991 RMK AO2 SLP143 T00441056 10144 20044 56009

时间: 18:44 (00:44 UTC)


TAF: 丢失

超过4000个机场的气象观测和天气预报(METAR&TAF报告)。

可查询的气象台以黄色和红色小点在地图上表示。

将鼠标移到小点上方,可查看气象台名称。

然后点击查看天气观测和预报。

如需切换地图:点击带黑十字的绿色按钮放大地图;点击带横线的绿色按钮缩小地图;或者点击绿色箭头查看邻近地区的地图。


METAR-TAF: